Time;durP1;ratioP1;P1;durP2;ratioP2;P2;SDS_P1;SDS_P2;PMS_P1;PMS_P2;Temp;Humidity;BMP_temperature;BMP_pressure;BME280_temperature;BME280_humidity;BME280_pressure;Samples;Min_cycle;Max_cycle;Signal;HPM_P1;HPM_P2
2022/12/08 00:03:06;;;;;;;;;;;1.20;99.90;;;;;;6147438;22;20206;-92
2022/12/08 00:11:03;;;;;;;;;;;1.50;99.90;;;;;;5012289;28;19928;-91
2022/12/08 00:24:45;;;;;;;;;;;1.40;99.90;;;;;;5040958;28;19932;-92
2022/12/08 00:27:12;;;;;;;;;;;1.90;99.90;;;;;;5029030;28;20012;-91
2022/12/08 00:29:38;;;;;;;;;;;1.80;99.90;;;;;;5020604;28;19963;-92
2022/12/08 00:32:04;;;;;;;;;;;1.80;99.90;;;;;;5016413;28;20288;-92
2022/12/08 00:34:30;;;;;;;;;;;2.20;99.90;;;;;;5033178;28;19931;-91
2022/12/08 00:36:56;;;;;;;;;;;1.90;99.90;;;;;;5036692;28;19924;-92
2022/12/08 00:56:08;;;;;;;;;;;1.40;99.90;;;;;;5008219;28;19933;-88
2022/12/08 00:58:34;;;;;;;;;;;1.50;99.90;;;;;;5022658;28;19926;-88
2022/12/08 01:00:59;;;;;;;;;;;1.50;99.90;;;;;;4995099;28;19926;-88
2022/12/08 01:03:25;;;;;;;;;;;1.50;99.90;;;;;;4986315;28;19926;-89
2022/12/08 01:05:51;;;;;;;;;;;1.40;99.90;;;;;;4999474;28;19930;-88
2022/12/08 01:08:16;;;;;;;;;;;1.40;99.90;;;;;;4994576;28;20426;-89
2022/12/08 01:10:42;;;;;;;;;;;1.40;99.90;;;;;;4970518;28;19937;-88
2022/12/08 01:13:07;;;;;;;;;;;1.40;99.90;;;;;;4982845;28;19930;-88
2022/12/08 01:15:33;;;;;;;;;;;1.40;99.90;;;;;;4989739;28;19933;-88
2022/12/08 01:17:58;;;;;;;;;;;1.40;99.90;;;;;;4982936;28;19922;-89
2022/12/08 01:20:24;;;;;;;;;;;1.40;99.90;;;;;;4995595;28;19925;-88
2022/12/08 01:22:50;;;;;;;;;;;1.40;99.90;;;;;;4996055;28;20309;-89
2022/12/08 01:25:15;;;;;;;;;;;1.50;99.90;;;;;;5007434;28;19969;-89
2022/12/08 01:27:41;;;;;;;;;;;1.50;99.90;;;;;;4986590;28;19940;-90
2022/12/08 01:30:07;;;;;;;;;;;1.50;99.90;;;;;;4988972;28;19926;-89
2022/12/08 01:32:32;;;;;;;;;;;1.50;99.90;;;;;;4992531;28;19971;-88
2022/12/08 01:34:58;;;;;;;;;;;1.50;99.90;;;;;;4985068;28;19949;-89
2022/12/08 01:37:23;;;;;;;;;;;1.40;99.90;;;;;;4986853;28;19926;-88
2022/12/08 01:39:49;;;;;;;;;;;1.40;99.90;;;;;;4979975;28;19930;-89
2022/12/08 01:42:19;;;;;;;;;;;1.40;99.90;;;;;;4995676;28;19926;-89
2022/12/08 01:44:51;;;;;;;;;;;1.40;99.90;;;;;;4997613;28;20025;-89
2022/12/08 01:47:17;;;;;;;;;;;1.40;99.90;;;;;;5000804;28;19926;-89
2022/12/08 01:49:42;;;;;;;;;;;1.30;99.90;;;;;;4990951;28;19933;-89
2022/12/08 01:52:13;;;;;;;;;;;1.30;99.90;;;;;;4972535;28;20361;-89
2022/12/08 01:54:41;;;;;;;;;;;1.30;99.90;;;;;;5003302;28;20107;-89
2022/12/08 01:57:12;;;;;;;;;;;1.20;99.90;;;;;;4999067;28;20030;-89
2022/12/08 01:59:40;;;;;;;;;;;1.20;99.90;;;;;;4974769;28;19925;-89
2022/12/08 02:02:09;;;;;;;;;;;1.20;99.90;;;;;;4989893;28;19925;-89
2022/12/08 02:04:35;;;;;;;;;;;1.20;99.90;;;;;;4999055;28;19933;-88
2022/12/08 02:07:01;;;;;;;;;;;1.20;99.90;;;;;;4981030;28;19929;-88
2022/12/08 02:09:26;;;;;;;;;;;1.20;99.90;;;;;;5007123;28;19925;-88
2022/12/08 02:11:53;;;;;;;;;;;1.20;99.90;;;;;;4968130;28;19926;-88
2022/12/08 02:14:19;;;;;;;;;;;1.30;99.90;;;;;;5002476;28;19930;-89
2022/12/08 02:16:54;;;;;;;;;;;1.30;99.90;;;;;;5003948;28;19925;-89
2022/12/08 02:19:26;;;;;;;;;;;1.30;99.90;;;;;;5002247;28;19926;-89
2022/12/08 02:21:55;;;;;;;;;;;1.30;99.90;;;;;;4994284;28;19931;-89
2022/12/08 02:24:37;;;;;;;;;;;1.30;99.90;;;;;;5009283;28;19956;-88
2022/12/08 02:27:22;;;;;;;;;;;1.40;99.90;;;;;;4979145;28;19921;-88
2022/12/08 02:29:56;;;;;;;;;;;1.40;99.90;;;;;;4998358;28;19925;-88
2022/12/08 02:32:34;;;;;;;;;;;1.50;99.90;;;;;;4991235;28;20000;-89
2022/12/08 02:35:25;;;;;;;;;;;1.50;99.90;;;;;;5015840;28;19949;-89
2022/12/08 02:37:57;;;;;;;;;;;1.50;99.90;;;;;;5013975;28;19977;-89
2022/12/08 02:40:23;;;;;;;;;;;1.50;99.90;;;;;;4999433;28;20232;-89
2022/12/08 02:42:56;;;;;;;;;;;1.50;99.90;;;;;;4997738;28;19957;-89
2022/12/08 02:45:22;;;;;;;;;;;1.60;99.90;;;;;;4997158;28;19925;-89
2022/12/08 02:47:48;;;;;;;;;;;1.60;99.90;;;;;;4992750;28;19952;-89
2022/12/08 02:50:14;;;;;;;;;;;1.60;99.90;;;;;;4997489;28;19925;-89
2022/12/08 02:52:41;;;;;;;;;;;1.60;99.90;;;;;;4982568;28;19925;-89
2022/12/08 02:55:13;;;;;;;;;;;1.60;99.90;;;;;;4998793;28;19929;-90
2022/12/08 02:57:41;;;;;;;;;;;1.70;99.90;;;;;;5003009;28;19925;-89
2022/12/08 03:00:09;;;;;;;;;;;1.70;99.90;;;;;;5004243;28;19941;-89
2022/12/08 03:02:44;;;;;;;;;;;1.70;99.90;;;;;;5003177;28;19952;-90
2022/12/08 03:05:15;;;;;;;;;;;1.60;99.90;;;;;;5008088;28;20012;-89
2022/12/08 03:07:41;;;;;;;;;;;1.60;99.90;;;;;;5002590;28;19941;-89
2022/12/08 03:10:07;;;;;;;;;;;1.50;99.90;;;;;;5004491;28;19930;-89
2022/12/08 03:12:58;;;;;;;;;;;1.50;99.90;;;;;;5005135;28;19957;-90
2022/12/08 03:15:24;;;;;;;;;;;1.50;99.90;;;;;;4976038;28;19998;-89
2022/12/08 03:17:51;;;;;;;;;;;1.50;99.90;;;;;;4984636;28;19932;-89
2022/12/08 03:20:19;;;;;;;;;;;1.50;99.90;;;;;;4996066;28;19952;-89
2022/12/08 03:22:48;;;;;;;;;;;1.50;99.90;;;;;;4986683;28;19961;-88
2022/12/08 03:25:14;;;;;;;;;;;1.50;99.90;;;;;;4992725;28;19934;-89
2022/12/08 03:27:40;;;;;;;;;;;1.50;99.90;;;;;;4972619;28;19933;-90
2022/12/08 03:30:06;;;;;;;;;;;1.50;99.90;;;;;;5001073;28;19925;-89
2022/12/08 03:32:31;;;;;;;;;;;1.50;99.90;;;;;;4984179;28;19967;-88
2022/12/08 03:34:59;;;;;;;;;;;1.50;99.90;;;;;;5004639;28;19960;-89
2022/12/08 03:37:25;;;;;;;;;;;1.50;99.90;;;;;;4993731;28;19933;-89
2022/12/08 03:39:51;;;;;;;;;;;1.40;99.90;;;;;;5009892;28;19929;-89
2022/12/08 03:42:17;;;;;;;;;;;1.40;99.90;;;;;;4979511;28;19929;-88
2022/12/08 03:44:42;;;;;;;;;;;1.40;99.90;;;;;;5002735;28;19925;-88
2022/12/08 03:47:08;;;;;;;;;;;2.40;99.90;;;;;;4983634;28;19930;-90
2022/12/08 03:49:33;;;;;;;;;;;1.30;99.90;;;;;;5004570;28;19925;-88
2022/12/08 03:51:59;;;;;;;;;;;1.30;99.90;;;;;;4999574;28;20424;-88
2022/12/08 03:54:25;;;;;;;;;;;1.30;99.90;;;;;;4975293;28;20456;-88
2022/12/08 03:56:50;;;;;;;;;;;1.30;99.90;;;;;;4992672;28;19926;-88
2022/12/08 03:59:16;;;;;;;;;;;1.30;99.90;;;;;;4994746;28;19926;-88
2022/12/08 04:01:41;;;;;;;;;;;1.30;99.90;;;;;;4978475;28;19981;-89
2022/12/08 04:04:07;;;;;;;;;;;1.30;99.90;;;;;;4996025;28;20024;-89
2022/12/08 04:06:32;;;;;;;;;;;1.20;99.90;;;;;;4982170;28;19941;-89
2022/12/08 04:08:58;;;;;;;;;;;1.30;99.90;;;;;;4994412;28;19926;-89
2022/12/08 04:11:24;;;;;;;;;;;1.20;99.90;;;;;;4987021;28;19933;-89
2022/12/08 04:13:49;;;;;;;;;;;1.20;99.90;;;;;;4973018;28;19926;-89
2022/12/08 04:16:16;;;;;;;;;;;1.20;99.90;;;;;;4964378;28;19926;-88
2022/12/08 04:18:42;;;;;;;;;;;1.20;99.90;;;;;;4999165;28;19953;-89
2022/12/08 04:21:07;;;;;;;;;;;1.20;99.90;;;;;;5004830;28;19937;-89
2022/12/08 04:23:33;;;;;;;;;;;1.20;99.90;;;;;;4978672;28;19932;-89
2022/12/08 04:25:59;;;;;;;;;;;1.80;99.90;;;;;;4987586;28;19925;-88
2022/12/08 04:28:24;;;;;;;;;;;1.20;99.90;;;;;;4986055;28;19926;-89
2022/12/08 04:30:50;;;;;;;;;;;1.20;99.90;;;;;;4988176;28;19988;-89
2022/12/08 04:33:15;;;;;;;;;;;1.20;99.90;;;;;;4989404;28;20314;-89
2022/12/08 04:35:41;;;;;;;;;;;1.20;99.90;;;;;;4978730;28;19929;-88
2022/12/08 04:38:06;;;;;;;;;;;1.20;99.90;;;;;;4974723;28;19933;-88
2022/12/08 04:40:32;;;;;;;;;;;1.30;99.90;;;;;;4980867;28;19933;-89
2022/12/08 04:42:58;;;;;;;;;;;1.20;99.90;;;;;;5012141;28;19933;-90
2022/12/08 04:45:23;;;;;;;;;;;1.20;99.90;;;;;;4995275;28;19926;-90
2022/12/08 04:47:49;;;;;;;;;;;1.20;99.90;;;;;;4997442;28;19953;-89
2022/12/08 04:50:15;;;;;;;;;;;1.20;99.90;;;;;;4997603;28;19925;-89
2022/12/08 04:52:40;;;;;;;;;;;1.20;99.90;;;;;;4977839;28;19961;-89
2022/12/08 04:55:06;;;;;;;;;;;1.30;99.90;;;;;;4992672;28;19925;-90
2022/12/08 04:57:32;;;;;;;;;;;1.20;99.90;;;;;;5012143;28;19925;-89
2022/12/08 04:59:57;;;;;;;;;;;1.20;99.90;;;;;;4996179;28;19925;-90
2022/12/08 05:02:23;;;;;;;;;;;1.20;99.90;;;;;;4977443;28;20019;-89
2022/12/08 05:04:48;;;;;;;;;;;1.30;99.90;;;;;;4979772;28;19926;-88
2022/12/08 05:07:14;;;;;;;;;;;1.30;99.90;;;;;;4993619;28;19926;-89
2022/12/08 05:09:40;;;;;;;;;;;1.30;99.90;;;;;;4996883;28;19937;-89
2022/12/08 05:12:05;;;;;;;;;;;1.30;99.90;;;;;;4994226;28;19972;-88
2022/12/08 05:14:31;;;;;;;;;;;1.30;99.90;;;;;;4986650;28;20488;-90
2022/12/08 05:16:57;;;;;;;;;;;1.30;99.90;;;;;;4990497;28;19941;-90
2022/12/08 05:19:22;;;;;;;;;;;1.30;99.90;;;;;;5001875;28;19921;-90
2022/12/08 05:21:48;;;;;;;;;;;1.30;99.90;;;;;;4972516;28;19933;-89
2022/12/08 05:24:13;;;;;;;;;;;1.20;99.90;;;;;;4996770;28;19989;-89
2022/12/08 05:26:39;;;;;;;;;;;1.20;99.90;;;;;;4979481;28;19975;-89
2022/12/08 05:29:05;;;;;;;;;;;1.20;99.90;;;;;;4968732;28;19933;-89
2022/12/08 05:31:30;;;;;;;;;;;1.20;99.90;;;;;;4997338;28;19977;-90
2022/12/08 05:33:56;;;;;;;;;;;1.20;99.90;;;;;;5002220;28;19933;-90
2022/12/08 05:36:21;;;;;;;;;;;1.10;99.90;;;;;;4980073;28;19973;-90
2022/12/08 05:38:47;;;;;;;;;;;1.10;99.90;;;;;;4996791;28;20012;-89
2022/12/08 05:41:14;;;;;;;;;;;1.10;99.90;;;;;;4998684;28;19984;-90
2022/12/08 05:43:40;;;;;;;;;;;1.10;99.90;;;;;;5005991;28;20317;-89
2022/12/08 05:46:06;;;;;;;;;;;1.10;99.90;;;;;;4995725;28;20005;-89
2022/12/08 05:48:32;;;;;;;;;;;1.10;99.90;;;;;;4980720;28;20056;-90
2022/12/08 05:50:57;;;;;;;;;;;1.20;99.90;;;;;;4996637;28;19926;-89
2022/12/08 05:53:23;;;;;;;;;;;1.10;99.90;;;;;;4989892;28;19933;-88
2022/12/08 05:55:48;;;;;;;;;;;1.00;99.90;;;;;;4995061;28;19982;-89
2022/12/08 05:58:16;;;;;;;;;;;1.00;99.90;;;;;;5001415;28;19929;-90
2022/12/08 06:00:42;;;;;;;;;;;1.00;99.90;;;;;;5002704;28;19933;-89
2022/12/08 06:03:10;;;;;;;;;;;1.00;99.90;;;;;;4987684;28;19930;-89
2022/12/08 06:05:35;;;;;;;;;;;1.00;99.90;;;;;;4993265;28;19925;-89
2022/12/08 06:08:01;;;;;;;;;;;0.90;99.90;;;;;;4997911;28;19937;-90
2022/12/08 06:10:26;;;;;;;;;;;1.00;99.90;;;;;;5004429;28;19932;-90
2022/12/08 06:12:52;;;;;;;;;;;0.90;99.90;;;;;;5000906;28;19926;-89
2022/12/08 06:15:18;;;;;;;;;;;0.90;99.90;;;;;;4993881;28;19930;-90
2022/12/08 06:17:43;;;;;;;;;;;0.90;99.90;;;;;;4991228;28;20028;-90
2022/12/08 06:20:09;;;;;;;;;;;0.90;99.90;;;;;;5003017;28;20008;-89
2022/12/08 06:22:35;;;;;;;;;;;0.90;99.90;;;;;;4991492;28;19926;-89
2022/12/08 06:25:00;;;;;;;;;;;0.90;99.90;;;;;;4999349;28;19984;-89
2022/12/08 06:27:26;;;;;;;;;;;0.90;99.90;;;;;;4994580;28;19961;-89
2022/12/08 06:29:52;;;;;;;;;;;0.90;99.90;;;;;;4958191;28;20606;-90
2022/12/08 06:32:17;;;;;;;;;;;0.90;99.90;;;;;;4990244;28;20027;-89
2022/12/08 06:34:43;;;;;;;;;;;0.90;99.90;;;;;;4992405;28;20418;-89
2022/12/08 06:37:08;;;;;;;;;;;0.80;99.90;;;;;;4981719;28;20400;-88
2022/12/08 06:39:34;;;;;;;;;;;0.80;99.90;;;;;;4997156;28;19989;-90
2022/12/08 06:44:44;;;;;;;;;;;0.80;99.90;;;;;;4978734;28;19926;-90
2022/12/08 06:47:10;;;;;;;;;;;0.70;99.90;;;;;;4991917;28;19933;-92
2022/12/08 06:49:35;;;;;;;;;;;0.70;99.90;;;;;;4994348;28;20024;-89
2022/12/08 06:52:01;;;;;;;;;;;0.70;99.90;;;;;;4999559;28;19929;-91
2022/12/08 06:54:26;;;;;;;;;;;0.60;99.90;;;;;;4984381;28;19965;-92
2022/12/08 06:56:52;;;;;;;;;;;0.60;99.90;;;;;;4992378;28;19994;-91
2022/12/08 06:59:18;;;;;;;;;;;0.50;99.90;;;;;;4972383;28;19933;-90
2022/12/08 07:01:44;;;;;;;;;;;0.50;99.90;;;;;;4985729;28;19937;-92
2022/12/08 07:04:10;;;;;;;;;;;0.80;99.90;;;;;;4976097;28;19925;-93
2022/12/08 07:06:35;;;;;;;;;;;0.40;99.90;;;;;;4993839;28;19932;-93
2022/12/08 07:09:01;;;;;;;;;;;1.10;99.90;;;;;;4976824;28;19930;-92
2022/12/08 07:11:26;;;;;;;;;;;1.30;99.90;;;;;;4964505;28;19988;-93
2022/12/08 07:13:54;;;;;;;;;;;0.30;99.90;;;;;;4979259;28;19933;-90
2022/12/08 07:16:19;;;;;;;;;;;0.30;99.90;;;;;;4990926;28;20007;-91
2022/12/08 07:18:45;;;;;;;;;;;0.20;99.90;;;;;;4990950;28;19925;-92
2022/12/08 07:21:12;;;;;;;;;;;0.20;99.90;;;;;;4980262;28;19934;-90
2022/12/08 07:23:37;;;;;;;;;;;0.10;99.90;;;;;;4988014;28;19976;-90
2022/12/08 07:26:04;;;;;;;;;;;0.10;99.90;;;;;;5001029;28;19929;-91
2022/12/08 07:28:33;;;;;;;;;;;0.10;99.90;;;;;;4996848;28;19936;-89
2022/12/08 07:30:59;;;;;;;;;;;0.10;99.90;;;;;;4996310;28;19930;-89
2022/12/08 07:33:25;;;;;;;;;;;1.20;99.90;;;;;;4969119;28;19925;-90
2022/12/08 07:35:54;;;;;;;;;;;0.10;99.90;;;;;;4993770;28;19933;-90
2022/12/08 07:38:20;;;;;;;;;;;0.10;99.90;;;;;;4992763;28;19925;-91
2022/12/08 07:40:46;;;;;;;;;;;0.00;99.90;;;;;;5003755;28;20024;-93
2022/12/08 07:43:11;;;;;;;;;;;0.00;99.90;;;;;;5006617;28;19965;-91
2022/12/08 07:45:37;;;;;;;;;;;0.00;99.90;;;;;;4976385;28;19925;-91
2022/12/08 07:48:03;;;;;;;;;;;0.00;99.90;;;;;;4995951;28;20462;-92
2022/12/08 07:50:28;;;;;;;;;;;0.00;99.90;;;;;;4990229;28;19952;-91
2022/12/08 07:52:54;;;;;;;;;;;0.00;99.90;;;;;;4960599;28;19937;-91
2022/12/08 07:55:19;;;;;;;;;;;0.10;99.90;;;;;;4991620;28;19926;-89
2022/12/08 07:57:45;;;;;;;;;;;0.10;99.90;;;;;;4993833;28;19969;-90
2022/12/08 08:00:11;;;;;;;;;;;0.00;99.90;;;;;;4968559;28;19930;-90
2022/12/08 08:02:37;;;;;;;;;;;0.00;99.90;;;;;;4968883;28;19950;-89
2022/12/08 08:05:05;;;;;;;;;;;0.00;99.90;;;;;;5001080;28;19926;-90
2022/12/08 08:07:31;;;;;;;;;;;0.00;99.90;;;;;;4976995;28;19930;-92
2022/12/08 08:09:57;;;;;;;;;;;0.60;99.90;;;;;;5005231;28;19932;-92
2022/12/08 08:12:22;;;;;;;;;;;0.00;99.90;;;;;;5006469;28;20009;-93
2022/12/08 08:14:48;;;;;;;;;;;0.00;99.90;;;;;;4990435;28;19925;-91
2022/12/08 08:17:13;;;;;;;;;;;-0.10;99.90;;;;;;4986557;28;19953;-93
2022/12/08 08:19:39;;;;;;;;;;;1.00;99.90;;;;;;4989423;28;19926;-93
2022/12/08 08:22:05;;;;;;;;;;;-0.10;99.90;;;;;;4974001;28;19949;-94
2022/12/08 08:24:30;;;;;;;;;;;-0.10;99.90;;;;;;4989390;28;19948;-91
2022/12/08 08:26:56;;;;;;;;;;;-0.10;99.90;;;;;;4991814;28;20065;-91
2022/12/08 08:29:21;;;;;;;;;;;0.40;99.90;;;;;;4995653;28;19926;-90
2022/12/08 08:31:47;;;;;;;;;;;-0.10;99.90;;;;;;4985895;28;20290;-90
2022/12/08 08:34:13;;;;;;;;;;;-0.10;99.90;;;;;;4999237;28;19925;-92
2022/12/08 08:36:39;;;;;;;;;;;-0.10;99.90;;;;;;5011899;28;19929;-93
2022/12/08 08:39:04;;;;;;;;;;;0.30;99.90;;;;;;5013585;28;19926;-91
2022/12/08 08:41:30;;;;;;;;;;;-0.10;99.90;;;;;;5002931;28;20025;-93
2022/12/08 08:43:55;;;;;;;;;;;0.30;99.90;;;;;;4974855;28;19949;-91
2022/12/08 08:46:21;;;;;;;;;;;0.10;99.90;;;;;;4974555;28;19956;-91
2022/12/08 08:48:47;;;;;;;;;;;0.10;99.90;;;;;;4967386;28;19929;-93
2022/12/08 08:51:13;;;;;;;;;;;0.20;99.90;;;;;;4986301;28;19926;-94
2022/12/08 08:53:39;;;;;;;;;;;0.60;99.90;;;;;;4995156;28;19926;-94
2022/12/08 08:56:09;;;;;;;;;;;0.30;99.90;;;;;;5005340;28;19940;-93
2022/12/08 08:58:35;;;;;;;;;;;0.30;99.90;;;;;;5000572;28;19930;-93
2022/12/08 09:01:00;;;;;;;;;;;0.30;99.90;;;;;;4975784;28;20147;-92
2022/12/08 09:03:26;;;;;;;;;;;0.30;99.90;;;;;;4976457;28;19965;-93
2022/12/08 09:05:51;;;;;;;;;;;0.40;99.90;;;;;;4989058;28;19926;-93
2022/12/08 09:08:18;;;;;;;;;;;0.30;99.90;;;;;;4973419;28;19990;-93
2022/12/08 09:10:43;;;;;;;;;;;0.40;99.90;;;;;;4991880;28;19926;-94
2022/12/08 09:13:09;;;;;;;;;;;1.80;99.90;;;;;;5001517;28;19926;-93
2022/12/08 09:15:35;;;;;;;;;;;0.50;99.90;;;;;;4989807;28;19926;-93
2022/12/08 09:18:00;;;;;;;;;;;0.50;99.90;;;;;;4994888;28;19929;-94
2022/12/08 09:20:26;;;;;;;;;;;0.50;99.90;;;;;;4994715;28;19953;-95
2022/12/08 09:22:51;;;;;;;;;;;0.60;99.90;;;;;;4987996;28;19932;-94
2022/12/08 09:25:18;;;;;;;;;;;0.70;99.90;;;;;;4980634;28;19926;-93
2022/12/08 09:27:44;;;;;;;;;;;0.80;99.90;;;;;;4992682;28;20007;-95
2022/12/08 09:30:09;;;;;;;;;;;0.90;99.90;;;;;;4975211;28;19930;-94
2022/12/08 09:32:35;;;;;;;;;;;1.10;99.90;;;;;;4994929;28;19926;-92
2022/12/08 09:35:00;;;;;;;;;;;2.80;99.90;;;;;;4988650;28;19969;-94
2022/12/08 09:37:26;;;;;;;;;;;2.50;99.90;;;;;;4973615;28;19995;-93
2022/12/08 09:39:55;;;;;;;;;;;1.20;99.90;;;;;;4975208;28;19926;-94
2022/12/08 09:42:29;;;;;;;;;;;1.20;99.90;;;;;;4979028;28;19937;-94
2022/12/08 09:45:02;;;;;;;;;;;1.30;99.90;;;;;;4985687;28;19926;-94
2022/12/08 09:47:51;;;;;;;;;;;1.30;99.90;;;;;;5003337;28;19925;-92
2022/12/08 09:50:35;;;;;;;;;;;1.30;99.90;;;;;;5007449;28;19932;-94
2022/12/08 09:53:19;;;;;;;;;;;1.40;99.90;;;;;;4991900;28;19936;-94
2022/12/08 09:55:49;;;;;;;;;;;1.40;99.90;;;;;;5004867;28;19926;-95
2022/12/08 09:58:24;;;;;;;;;;;1.50;99.90;;;;;;4996714;28;19925;-94
2022/12/08 10:00:50;;;;;;;;;;;1.50;99.90;;;;;;4991989;28;20541;-96
2022/12/08 10:03:17;;;;;;;;;;;1.60;99.90;;;;;;4992837;28;19933;-92
2022/12/08 10:05:51;;;;;;;;;;;1.60;99.90;;;;;;4989671;28;19926;-92
2022/12/08 10:08:16;;;;;;;;;;;1.70;99.90;;;;;;4990049;28;19940;-93
2022/12/08 10:10:46;;;;;;;;;;;1.80;99.90;;;;;;4995896;28;19969;-93
2022/12/08 10:13:14;;;;;;;;;;;1.80;99.90;;;;;;4996832;28;19930;-93
2022/12/08 10:15:58;;;;;;;;;;;1.80;99.90;;;;;;4989245;28;19930;-94
2022/12/08 10:18:26;;;;;;;;;;;1.90;99.90;;;;;;4992878;28;19925;-94
2022/12/08 10:20:55;;;;;;;;;;;1.90;99.90;;;;;;4993727;28;19925;-96
2022/12/08 10:23:27;;;;;;;;;;;2.00;99.90;;;;;;5005928;28;19926;-95
2022/12/08 10:26:01;;;;;;;;;;;2.00;99.90;;;;;;4988720;28;19940;-95
2022/12/08 10:28:26;;;;;;;;;;;2.00;99.90;;;;;;4984183;28;19976;-92
2022/12/08 10:30:52;;;;;;;;;;;2.10;99.90;;;;;;4972842;28;19959;-90
2022/12/08 10:33:19;;;;;;;;;;;2.30;99.90;;;;;;4986151;28;19935;-92
2022/12/08 10:35:46;;;;;;;;;;;2.40;99.90;;;;;;4997983;28;19957;-94
2022/12/08 10:38:32;;;;;;;;;;;2.60;99.90;;;;;;5006739;28;19952;-93
2022/12/08 10:41:03;;;;;;;;;;;2.80;99.90;;;;;;4982840;28;19926;-93
2022/12/08 10:43:29;;;;;;;;;;;2.90;99.90;;;;;;5005317;28;19993;-93
2022/12/08 10:46:06;;;;;;;;;;;3.10;99.90;;;;;;5012907;28;19926;-93
2022/12/08 10:48:32;;;;;;;;;;;3.20;99.90;;;;;;4987420;28;19929;-92
2022/12/08 10:50:58;;;;;;;;;;;3.90;99.90;;;;;;4992416;28;19971;-93
2022/12/08 10:53:25;;;;;;;;;;;3.40;99.90;;;;;;4998803;28;20336;-94
2022/12/08 10:55:52;;;;;;;;;;;3.60;99.90;;;;;;4996432;28;19936;-93
2022/12/08 10:58:44;;;;;;;;;;;3.50;99.90;;;;;;4989347;28;19925;-94
2022/12/08 11:01:19;;;;;;;;;;;3.50;99.90;;;;;;5002241;28;19925;-91
2022/12/08 11:03:44;;;;;;;;;;;3.50;99.90;;;;;;4994924;28;19925;-95
2022/12/08 11:06:16;;;;;;;;;;;3.60;99.90;;;;;;5014412;28;20576;-94
2022/12/08 11:08:44;;;;;;;;;;;3.60;99.90;;;;;;4992072;28;19941;-94
2022/12/08 11:11:10;;;;;;;;;;;3.60;99.90;;;;;;4990638;28;19953;-95
2022/12/08 11:13:40;;;;;;;;;;;3.70;99.90;;;;;;4989142;28;20471;-96
2022/12/08 11:16:07;;;;;;;;;;;3.60;99.90;;;;;;4998624;28;19937;-92
2022/12/08 11:18:45;;;;;;;;;;;3.60;99.90;;;;;;4974213;28;19925;-95
2022/12/08 11:21:15;;;;;;;;;;;3.70;99.90;;;;;;5005147;28;19960;-91
2022/12/08 11:23:45;;;;;;;;;;;3.70;99.90;;;;;;4989034;28;19979;-92
2022/12/08 11:26:16;;;;;;;;;;;3.70;99.90;;;;;;4996632;28;19932;-93
2022/12/08 11:28:41;;;;;;;;;;;3.80;99.90;;;;;;4998591;28;19997;-95
2022/12/08 11:31:15;;;;;;;;;;;3.90;99.90;;;;;;4986332;28;19933;-95
2022/12/08 11:33:41;;;;;;;;;;;4.00;99.90;;;;;;4986722;28;19937;-94
2022/12/08 11:36:10;;;;;;;;;;;4.10;99.90;;;;;;4959246;28;20033;-95
2022/12/08 11:38:39;;;;;;;;;;;4.10;99.90;;;;;;4985633;28;20029;-96
2022/12/08 11:41:10;;;;;;;;;;;4.20;99.90;;;;;;5003470;28;19945;-96
2022/12/08 11:43:35;;;;;;;;;;;4.20;99.90;;;;;;4994060;28;19926;-94
2022/12/08 11:46:03;;;;;;;;;;;4.20;99.90;;;;;;4993207;28;19936;-95
2022/12/08 11:48:32;;;;;;;;;;;4.10;99.90;;;;;;4991001;28;19926;-94
2022/12/08 11:51:16;;;;;;;;;;;4.00;99.90;;;;;;4969487;28;19926;-96
2022/12/08 11:53:47;;;;;;;;;;;3.90;99.90;;;;;;4988503;28;19933;-96
2022/12/08 11:56:20;;;;;;;;;;;4.00;99.90;;;;;;4984819;28;19941;-95
2022/12/08 11:58:50;;;;;;;;;;;3.90;99.90;;;;;;4988341;28;20483;-95
2022/12/08 12:01:20;;;;;;;;;;;4.00;99.90;;;;;;4996114;28;19933;-94
2022/12/08 12:04:11;;;;;;;;;;;4.00;99.90;;;;;;4992515;28;19925;-94
2022/12/08 12:06:56;;;;;;;;;;;4.00;99.90;;;;;;4978279;28;19936;-95
2022/12/08 12:09:25;;;;;;;;;;;4.10;99.90;;;;;;4985266;28;19934;-94
2022/12/08 12:14:48;;;;;;;;;;;4.10;99.90;;;;;;4979104;28;20684;-94
2022/12/08 12:17:32;;;;;;;;;;;4.20;99.90;;;;;;4985283;28;19994;-96
2022/12/08 12:20:01;;;;;;;;;;;4.20;99.90;;;;;;4986158;28;19981;-92
2022/12/08 12:22:30;;;;;;;;;;;4.20;99.90;;;;;;4982815;28;19925;-93
2022/12/08 12:24:55;;;;;;;;;;;4.10;99.90;;;;;;4977351;28;19926;-93
2022/12/08 12:27:31;;;;;;;;;;;4.00;99.90;;;;;;4991294;28;19960;-94
2022/12/08 12:29:58;;;;;;;;;;;3.90;99.90;;;;;;4985603;28;20293;-94
2022/12/08 12:32:25;;;;;;;;;;;3.80;99.90;;;;;;4989212;28;19952;-94
2022/12/08 12:34:59;;;;;;;;;;;3.70;99.90;;;;;;4968180;28;19926;-94
2022/12/08 12:37:44;;;;;;;;;;;3.60;99.90;;;;;;4995086;28;19965;-94
2022/12/08 12:40:22;;;;;;;;;;;3.40;99.90;;;;;;4969649;28;20439;-93
2022/12/08 12:43:08;;;;;;;;;;;3.30;99.90;;;;;;4984770;28;20321;-94
2022/12/08 12:45:34;;;;;;;;;;;3.20;99.90;;;;;;4978883;28;19925;-92
2022/12/08 12:48:00;;;;;;;;;;;3.10;99.90;;;;;;4984999;28;19965;-93
2022/12/08 12:50:32;;;;;;;;;;;3.00;99.90;;;;;;4990377;28;19926;-94
2022/12/08 12:53:03;;;;;;;;;;;3.00;99.90;;;;;;4987343;28;19930;-94
2022/12/08 12:55:44;;;;;;;;;;;3.00;99.90;;;;;;4984214;28;19926;-95
2022/12/08 12:58:28;;;;;;;;;;;3.00;99.90;;;;;;4991028;28;19985;-94
2022/12/08 13:01:12;;;;;;;;;;;3.00;99.90;;;;;;4986681;28;19925;-93
2022/12/08 13:03:40;;;;;;;;;;;3.00;99.90;;;;;;4992892;28;19930;-94
2022/12/08 13:06:06;;;;;;;;;;;3.40;99.90;;;;;;4992453;28;20373;-94
2022/12/08 13:08:32;;;;;;;;;;;3.10;99.90;;;;;;4978879;28;19972;-95
2022/12/08 13:11:07;;;;;;;;;;;3.10;99.90;;;;;;4988342;28;19926;-93
2022/12/08 13:13:33;;;;;;;;;;;3.00;99.90;;;;;;4966555;28;19988;-94
2022/12/08 13:16:03;;;;;;;;;;;3.00;99.90;;;;;;4984313;28;19926;-95
2022/12/08 13:18:38;;;;;;;;;;;2.90;99.90;;;;;;4985130;28;19926;-94
2022/12/08 13:21:07;;;;;;;;;;;2.80;99.90;;;;;;4988728;28;19933;-93
2022/12/08 13:23:35;;;;;;;;;;;2.80;99.90;;;;;;4987414;28;19926;-96
2022/12/08 13:26:13;;;;;;;;;;;2.70;99.90;;;;;;4985708;28;19949;-94
2022/12/08 13:28:57;;;;;;;;;;;2.70;99.90;;;;;;4986310;28;20010;-95
2022/12/08 13:31:52;;;;;;;;;;;2.60;99.90;;;;;;4987040;28;19936;-95
2022/12/08 13:34:40;;;;;;;;;;;2.60;99.90;;;;;;4967559;28;19932;-94
2022/12/08 13:37:09;;;;;;;;;;;2.50;99.90;;;;;;5009287;28;19952;-92
2022/12/08 13:39:37;;;;;;;;;;;2.40;99.90;;;;;;5003084;28;19945;-93
2022/12/08 13:42:14;;;;;;;;;;;2.30;99.90;;;;;;5014910;28;19932;-96
2022/12/08 13:44:46;;;;;;;;;;;2.30;99.90;;;;;;4987134;28;19918;-94
2022/12/08 13:47:14;;;;;;;;;;;2.30;99.90;;;;;;4987846;28;19957;-94
2022/12/08 13:49:44;;;;;;;;;;;2.30;99.90;;;;;;4988700;28;20261;-94
2022/12/08 13:52:33;;;;;;;;;;;2.30;99.90;;;;;;4996997;28;19930;-94
2022/12/08 13:55:00;;;;;;;;;;;2.40;99.90;;;;;;4972477;28;19925;-94
2022/12/08 13:57:28;;;;;;;;;;;2.40;99.90;;;;;;4990268;28;19932;-94
2022/12/08 13:59:58;;;;;;;;;;;2.40;99.90;;;;;;4971068;28;19926;-94
2022/12/08 14:02:31;;;;;;;;;;;2.40;99.90;;;;;;4988048;28;19926;-96
2022/12/08 14:04:57;;;;;;;;;;;2.40;99.90;;;;;;4983777;28;20369;-94
2022/12/08 14:07:23;;;;;;;;;;;2.40;99.90;;;;;;4987990;28;19929;-95
2022/12/08 14:09:49;;;;;;;;;;;2.40;99.90;;;;;;5003872;28;19926;-94
2022/12/08 14:12:18;;;;;;;;;;;2.40;99.90;;;;;;4976890;28;19933;-94
2022/12/08 14:14:46;;;;;;;;;;;2.30;99.90;;;;;;5002627;28;20015;-95
2022/12/08 14:17:13;;;;;;;;;;;2.30;99.90;;;;;;4990365;28;19940;-95
2022/12/08 14:19:38;;;;;;;;;;;2.20;99.90;;;;;;4994342;28;19969;-96
2022/12/08 14:22:07;;;;;;;;;;;2.20;99.90;;;;;;4984070;28;19949;-93
2022/12/08 14:24:33;;;;;;;;;;;2.10;99.90;;;;;;4979810;28;19925;-95
2022/12/08 14:27:00;;;;;;;;;;;2.10;99.90;;;;;;4979149;28;19959;-95
2022/12/08 14:29:32;;;;;;;;;;;2.00;99.90;;;;;;4998615;28;19948;-94
2022/12/08 14:31:57;;;;;;;;;;;2.20;99.90;;;;;;5010425;28;20017;-95
2022/12/08 14:34:24;;;;;;;;;;;1.90;99.90;;;;;;4976218;28;19997;-94
2022/12/08 14:36:50;;;;;;;;;;;1.90;99.90;;;;;;4988272;28;19952;-94
2022/12/08 14:39:16;;;;;;;;;;;2.20;99.90;;;;;;4977721;28;19925;-95
2022/12/08 14:41:56;;;;;;;;;;;1.90;99.90;;;;;;4976304;28;19972;-94
2022/12/08 14:44:23;;;;;;;;;;;1.80;99.90;;;;;;5007423;28;19965;-94
2022/12/08 14:47:03;;;;;;;;;;;1.80;99.90;;;;;;5013273;28;19948;-96
2022/12/08 14:49:37;;;;;;;;;;;1.80;99.90;;;;;;4985200;28;19930;-93
2022/12/08 14:52:07;;;;;;;;;;;1.70;99.90;;;;;;4986665;28;19925;-96
2022/12/08 14:54:33;;;;;;;;;;;1.70;99.90;;;;;;4987053;28;19926;-96
2022/12/08 14:57:00;;;;;;;;;;;1.60;99.90;;;;;;4985504;28;20374;-95
2022/12/08 14:59:26;;;;;;;;;;;1.60;99.90;;;;;;4999197;28;19989;-91
2022/12/08 15:01:53;;;;;;;;;;;1.60;99.90;;;;;;4986924;28;19969;-91
2022/12/08 15:04:24;;;;;;;;;;;1.50;99.90;;;;;;4965575;28;19977;-92
2022/12/08 15:07:11;;;;;;;;;;;1.40;99.90;;;;;;4988892;28;19926;-92
2022/12/08 15:09:39;;;;;;;;;;;1.30;99.90;;;;;;4971052;28;19961;-92
2022/12/08 15:12:17;;;;;;;;;;;1.20;99.90;;;;;;4974157;28;19926;-91
2022/12/08 15:14:57;;;;;;;;;;;1.10;99.90;;;;;;4992963;28;19926;-91
2022/12/08 15:17:26;;;;;;;;;;;1.10;99.90;;;;;;4993707;28;19944;-92